ADDS METAR Data INFO
IDs: Format: Raw Decoded Include TAF

Data at: 0339 UTC 24 Feb 2017

METAR for:KVCT (Victoria Rgnl, TX, US)
Text:KVCT 240251Z 15013KT 10SM OVC008 21/19 A2965 RMK AO2 SLP038 T02060194 51009
Temperature: 20.6°C ( 69°F)
Dewpoint: 19.4°C ( 67°F) [RH = 93%]
Pressure (altimeter):29.65 inches Hg (1004.1 mb) [Sea level pressure: 1003.8 mb]
Winds:from the SSE (150 degrees) at 15 MPH (13 knots; 6.7 m/s)
Visibility:10 or more sm (16+ km)
Ceiling:800 feet AGL
Clouds: overcast cloud deck at 800 feet AGL


Page loaded:  03:39 UTC  |   07:39 PM Pacific  |   08:39 PM Mountain  |   09:39 PM Central  |   10:39 PM Eastern

 

ADVISORIES

FORECASTS

FORECASTS

OBSERVATIONS

USER TOOLS

ABOUT US